sensor_id;sensor_type;location;lat;lon;timestamp;P1;durP1;ratioP1;P2;durP2;ratioP2
76761;SDS011;65705;51.032;13.790;2023-03-13T00:00:53;16.17;;;3.38;;
76761;SDS011;65705;51.032;13.790;2023-03-13T00:03:21;10.82;;;2.40;;
76761;SDS011;65705;51.032;13.790;2023-03-13T00:05:47;13.73;;;2.60;;
76761;SDS011;65705;51.032;13.790;2023-03-13T00:08:13;10.40;;;2.25;;
76761;SDS011;65705;51.032;13.790;2023-03-13T00:10:40;7.22;;;1.90;;
76761;SDS011;65705;51.032;13.790;2023-03-13T00:13:06;9.55;;;2.50;;
76761;SDS011;65705;51.032;13.790;2023-03-13T00:15:33;14.55;;;2.38;;
76761;SDS011;65705;51.032;13.790;2023-03-13T00:17:59;12.32;;;2.40;;
76761;SDS011;65705;51.032;13.790;2023-03-13T00:20:25;10.70;;;2.38;;
76761;SDS011;65705;51.032;13.790;2023-03-13T00:22:51;16.35;;;3.22;;
76761;SDS011;65705;51.032;13.790;2023-03-13T00:25:17;13.05;;;2.63;;
76761;SDS011;65705;51.032;13.790;2023-03-13T00:27:43;14.82;;;2.58;;
76761;SDS011;65705;51.032;13.790;2023-03-13T00:30:09;13.23;;;2.40;;
76761;SDS011;65705;51.032;13.790;2023-03-13T00:32:39;15.63;;;4.03;;
76761;SDS011;65705;51.032;13.790;2023-03-13T00:35:06;11.38;;;2.47;;
76761;SDS011;65705;51.032;13.790;2023-03-13T00:37:32;13.15;;;2.63;;
76761;SDS011;65705;51.032;13.790;2023-03-13T00:39:58;11.48;;;2.53;;
76761;SDS011;65705;51.032;13.790;2023-03-13T00:42:24;7.63;;;1.70;;
76761;SDS011;65705;51.032;13.790;2023-03-13T00:44:49;17.50;;;2.67;;
76761;SDS011;65705;51.032;13.790;2023-03-13T00:47:15;12.15;;;2.40;;
76761;SDS011;65705;51.032;13.790;2023-03-13T00:49:42;16.20;;;2.30;;
76761;SDS011;65705;51.032;13.790;2023-03-13T00:52:07;16.38;;;2.38;;
76761;SDS011;65705;51.032;13.790;2023-03-13T00:54:33;17.90;;;2.83;;
76761;SDS011;65705;51.032;13.790;2023-03-13T00:56:59;10.13;;;2.20;;
76761;SDS011;65705;51.032;13.790;2023-03-13T00:59:24;11.40;;;2.10;;
76761;SDS011;65705;51.032;13.790;2023-03-13T01:01:50;18.20;;;2.65;;
76761;SDS011;65705;51.032;13.790;2023-03-13T01:04:16;14.00;;;3.33;;
76761;SDS011;65705;51.032;13.790;2023-03-13T01:06:42;8.63;;;2.15;;
76761;SDS011;65705;51.032;13.790;2023-03-13T01:09:08;13.98;;;2.67;;
76761;SDS011;65705;51.032;13.790;2023-03-13T01:11:37;12.68;;;2.28;;
76761;SDS011;65705;51.032;13.790;2023-03-13T01:14:12;16.75;;;2.53;;
76761;SDS011;65705;51.032;13.790;2023-03-13T01:16:40;11.68;;;2.40;;
76761;SDS011;65705;51.032;13.790;2023-03-13T01:19:07;14.40;;;2.80;;
76761;SDS011;65705;51.032;13.790;2023-03-13T01:21:38;14.32;;;2.35;;
76761;SDS011;65705;51.032;13.790;2023-03-13T01:24:05;9.57;;;1.98;;
76761;SDS011;65705;51.032;13.790;2023-03-13T01:26:31;11.90;;;2.10;;
76761;SDS011;65705;51.032;13.790;2023-03-13T01:28:58;15.32;;;2.72;;
76761;SDS011;65705;51.032;13.790;2023-03-13T01:31:28;14.45;;;2.53;;
76761;SDS011;65705;51.032;13.790;2023-03-13T01:33:58;18.90;;;2.47;;
76761;SDS011;65705;51.032;13.790;2023-03-13T01:36:26;10.77;;;1.85;;
76761;SDS011;65705;51.032;13.790;2023-03-13T01:38:53;11.65;;;2.28;;
76761;SDS011;65705;51.032;13.790;2023-03-13T01:41:21;12.40;;;2.08;;
76761;SDS011;65705;51.032;13.790;2023-03-13T01:43:48;17.90;;;3.10;;
76761;SDS011;65705;51.032;13.790;2023-03-13T01:49:04;12.25;;;1.75;;
76761;SDS011;65705;51.032;13.790;2023-03-13T01:54:08;13.00;;;2.35;;
76761;SDS011;65705;51.032;13.790;2023-03-13T01:59:21;12.10;;;2.63;;
76761;SDS011;65705;51.032;13.790;2023-03-13T02:02:03;16.00;;;2.08;;
76761;SDS011;65705;51.032;13.790;2023-03-13T02:04:31;16.15;;;2.35;;
76761;SDS011;65705;51.032;13.790;2023-03-13T02:07:05;14.02;;;2.33;;
76761;SDS011;65705;51.032;13.790;2023-03-13T02:09:37;12.00;;;2.22;;
76761;SDS011;65705;51.032;13.790;2023-03-13T02:12:15;8.90;;;1.98;;
76761;SDS011;65705;51.032;13.790;2023-03-13T02:14:46;13.35;;;2.10;;
76761;SDS011;65705;51.032;13.790;2023-03-13T02:17:14;15.43;;;2.25;;
76761;SDS011;65705;51.032;13.790;2023-03-13T02:19:42;12.23;;;2.03;;
76761;SDS011;65705;51.032;13.790;2023-03-13T02:22:28;12.05;;;2.05;;
76761;SDS011;65705;51.032;13.790;2023-03-13T02:27:45;15.77;;;2.42;;
76761;SDS011;65705;51.032;13.790;2023-03-13T02:30:12;14.93;;;2.70;;
76761;SDS011;65705;51.032;13.790;2023-03-13T02:32:40;15.60;;;2.00;;
76761;SDS011;65705;51.032;13.790;2023-03-13T02:35:08;15.10;;;2.42;;
76761;SDS011;65705;51.032;13.790;2023-03-13T02:37:36;15.23;;;2.38;;
76761;SDS011;65705;51.032;13.790;2023-03-13T02:40:07;14.20;;;2.17;;
76761;SDS011;65705;51.032;13.790;2023-03-13T02:42:37;22.50;;;3.55;;
76761;SDS011;65705;51.032;13.790;2023-03-13T02:45:04;17.02;;;2.67;;
76761;SDS011;65705;51.032;13.790;2023-03-13T02:47:30;12.65;;;2.55;;
76761;SDS011;65705;51.032;13.790;2023-03-13T02:49:56;15.60;;;2.35;;
76761;SDS011;65705;51.032;13.790;2023-03-13T02:52:22;13.25;;;2.38;;
76761;SDS011;65705;51.032;13.790;2023-03-13T02:54:54;17.83;;;3.10;;
76761;SDS011;65705;51.032;13.790;2023-03-13T02:57:25;19.00;;;2.58;;
76761;SDS011;65705;51.032;13.790;2023-03-13T02:59:51;16.05;;;2.20;;
76761;SDS011;65705;51.032;13.790;2023-03-13T03:02:17;14.23;;;2.28;;
76761;SDS011;65705;51.032;13.790;2023-03-13T03:04:43;15.30;;;2.70;;
76761;SDS011;65705;51.032;13.790;2023-03-13T03:07:10;10.13;;;2.13;;
76761;SDS011;65705;51.032;13.790;2023-03-13T03:09:36;13.85;;;1.98;;
76761;SDS011;65705;51.032;13.790;2023-03-13T03:12:07;13.13;;;1.95;;
76761;SDS011;65705;51.032;13.790;2023-03-13T03:14:33;12.52;;;2.55;;
76761;SDS011;65705;51.032;13.790;2023-03-13T03:16:59;12.70;;;1.92;;
76761;SDS011;65705;51.032;13.790;2023-03-13T03:19:26;14.88;;;2.00;;
76761;SDS011;65705;51.032;13.790;2023-03-13T03:21:51;12.05;;;2.00;;
76761;SDS011;65705;51.032;13.790;2023-03-13T03:24:18;10.80;;;1.55;;
76761;SDS011;65705;51.032;13.790;2023-03-13T03:26:44;10.02;;;1.90;;
76761;SDS011;65705;51.032;13.790;2023-03-13T03:29:17;14.15;;;2.35;;
76761;SDS011;65705;51.032;13.790;2023-03-13T03:31:46;19.30;;;2.33;;
76761;SDS011;65705;51.032;13.790;2023-03-13T03:34:12;14.75;;;3.17;;
76761;SDS011;65705;51.032;13.790;2023-03-13T03:36:38;14.35;;;2.22;;
76761;SDS011;65705;51.032;13.790;2023-03-13T03:39:04;22.23;;;2.50;;
76761;SDS011;65705;51.032;13.790;2023-03-13T03:41:30;14.13;;;2.10;;
76761;SDS011;65705;51.032;13.790;2023-03-13T03:43:57;14.27;;;2.08;;
76761;SDS011;65705;51.032;13.790;2023-03-13T03:46:28;15.30;;;2.20;;
76761;SDS011;65705;51.032;13.790;2023-03-13T03:48:55;12.27;;;2.35;;
76761;SDS011;65705;51.032;13.790;2023-03-13T03:51:20;12.75;;;2.13;;
76761;SDS011;65705;51.032;13.790;2023-03-13T03:53:46;17.52;;;2.30;;
76761;SDS011;65705;51.032;13.790;2023-03-13T03:56:12;14.48;;;2.20;;
76761;SDS011;65705;51.032;13.790;2023-03-13T03:58:44;14.77;;;2.40;;
76761;SDS011;65705;51.032;13.790;2023-03-13T04:01:23;20.80;;;2.60;;
76761;SDS011;65705;51.032;13.790;2023-03-13T04:03:49;18.98;;;3.08;;
76761;SDS011;65705;51.032;13.790;2023-03-13T04:06:15;18.05;;;2.53;;
76761;SDS011;65705;51.032;13.790;2023-03-13T04:08:41;15.18;;;2.42;;
76761;SDS011;65705;51.032;13.790;2023-03-13T04:11:10;15.98;;;2.00;;
76761;SDS011;65705;51.032;13.790;2023-03-13T04:13:38;16.88;;;2.05;;
76761;SDS011;65705;51.032;13.790;2023-03-13T04:16:07;14.20;;;2.05;;
76761;SDS011;65705;51.032;13.790;2023-03-13T04:18:34;13.88;;;1.73;;
76761;SDS011;65705;51.032;13.790;2023-03-13T04:21:01;14.63;;;1.98;;
76761;SDS011;65705;51.032;13.790;2023-03-13T04:23:32;15.82;;;2.50;;
76761;SDS011;65705;51.032;13.790;2023-03-13T04:25:58;20.20;;;2.75;;
76761;SDS011;65705;51.032;13.790;2023-03-13T04:28:23;16.55;;;2.33;;
76761;SDS011;65705;51.032;13.790;2023-03-13T04:30:49;17.65;;;2.85;;
76761;SDS011;65705;51.032;13.790;2023-03-13T04:33:28;11.02;;;2.47;;
76761;SDS011;65705;51.032;13.790;2023-03-13T04:36:06;12.02;;;2.42;;
76761;SDS011;65705;51.032;13.790;2023-03-13T04:38:47;15.25;;;2.38;;
76761;SDS011;65705;51.032;13.790;2023-03-13T04:41:36;13.20;;;2.20;;
76761;SDS011;65705;51.032;13.790;2023-03-13T04:44:10;15.20;;;2.63;;
76761;SDS011;65705;51.032;13.790;2023-03-13T04:46:36;13.93;;;2.35;;
76761;SDS011;65705;51.032;13.790;2023-03-13T04:49:10;14.07;;;2.80;;
76761;SDS011;65705;51.032;13.790;2023-03-13T04:52:02;16.35;;;2.40;;
76761;SDS011;65705;51.032;13.790;2023-03-13T04:54:51;14.35;;;2.05;;
76761;SDS011;65705;51.032;13.790;2023-03-13T04:57:39;17.20;;;2.58;;
76761;SDS011;65705;51.032;13.790;2023-03-13T05:00:17;10.73;;;1.77;;
76761;SDS011;65705;51.032;13.790;2023-03-13T05:03:01;12.48;;;2.30;;
76761;SDS011;65705;51.032;13.790;2023-03-13T05:05:47;17.13;;;2.20;;
76761;SDS011;65705;51.032;13.790;2023-03-13T05:08:33;16.08;;;2.00;;
76761;SDS011;65705;51.032;13.790;2023-03-13T05:11:26;18.92;;;2.90;;
76761;SDS011;65705;51.032;13.790;2023-03-13T05:14:08;14.90;;;2.25;;
76761;SDS011;65705;51.032;13.790;2023-03-13T05:16:56;13.23;;;2.33;;
76761;SDS011;65705;51.032;13.790;2023-03-13T05:19:40;17.25;;;2.92;;
76761;SDS011;65705;51.032;13.790;2023-03-13T05:22:24;14.90;;;2.25;;
76761;SDS011;65705;51.032;13.790;2023-03-13T05:25:13;13.02;;;2.42;;
76761;SDS011;65705;51.032;13.790;2023-03-13T05:28:05;17.00;;;2.40;;
76761;SDS011;65705;51.032;13.790;2023-03-13T05:30:51;20.20;;;2.58;;
76761;SDS011;65705;51.032;13.790;2023-03-13T05:33:35;13.57;;;2.70;;
76761;SDS011;65705;51.032;13.790;2023-03-13T05:36:10;11.82;;;2.10;;
76761;SDS011;65705;51.032;13.790;2023-03-13T05:38:42;9.82;;;2.20;;
76761;SDS011;65705;51.032;13.790;2023-03-13T05:41:19;18.83;;;2.72;;
76761;SDS011;65705;51.032;13.790;2023-03-13T05:44:15;13.07;;;2.92;;
76761;SDS011;65705;51.032;13.790;2023-03-13T05:46:59;13.30;;;2.63;;
76761;SDS011;65705;51.032;13.790;2023-03-13T05:49:40;11.32;;;2.83;;
76761;SDS011;65705;51.032;13.790;2023-03-13T05:52:24;17.10;;;2.60;;
76761;SDS011;65705;51.032;13.790;2023-03-13T05:55:10;22.05;;;3.28;;
76761;SDS011;65705;51.032;13.790;2023-03-13T05:57:59;15.57;;;3.97;;
76761;SDS011;65705;51.032;13.790;2023-03-13T06:00:42;15.85;;;3.80;;
76761;SDS011;65705;51.032;13.790;2023-03-13T06:03:37;16.90;;;3.40;;
76761;SDS011;65705;51.032;13.790;2023-03-13T06:06:03;16.08;;;3.50;;
76761;SDS011;65705;51.032;13.790;2023-03-13T06:08:34;17.30;;;3.42;;
76761;SDS011;65705;51.032;13.790;2023-03-13T06:11:00;14.48;;;4.03;;
76761;SDS011;65705;51.032;13.790;2023-03-13T06:13:27;13.25;;;3.72;;
76761;SDS011;65705;51.032;13.790;2023-03-13T06:15:56;15.15;;;4.35;;
76761;SDS011;65705;51.032;13.790;2023-03-13T06:18:42;17.15;;;4.78;;
76761;SDS011;65705;51.032;13.790;2023-03-13T06:21:07;16.67;;;3.65;;
76761;SDS011;65705;51.032;13.790;2023-03-13T06:23:33;11.65;;;3.70;;
76761;SDS011;65705;51.032;13.790;2023-03-13T06:25:59;20.35;;;4.50;;
76761;SDS011;65705;51.032;13.790;2023-03-13T06:28:25;12.05;;;4.28;;
76761;SDS011;65705;51.032;13.790;2023-03-13T06:30:51;13.13;;;4.38;;
76761;SDS011;65705;51.032;13.790;2023-03-13T06:33:17;18.02;;;4.47;;
76761;SDS011;65705;51.032;13.790;2023-03-13T06:35:43;13.35;;;4.30;;
76761;SDS011;65705;51.032;13.790;2023-03-13T06:38:09;16.55;;;5.00;;
76761;SDS011;65705;51.032;13.790;2023-03-13T06:40:35;15.18;;;6.55;;
76761;SDS011;65705;51.032;13.790;2023-03-13T06:43:01;12.70;;;4.93;;
76761;SDS011;65705;51.032;13.790;2023-03-13T06:45:27;19.77;;;5.00;;
76761;SDS011;65705;51.032;13.790;2023-03-13T06:47:52;16.98;;;5.05;;
76761;SDS011;65705;51.032;13.790;2023-03-13T06:50:18;15.85;;;4.82;;
76761;SDS011;65705;51.032;13.790;2023-03-13T06:52:45;13.20;;;4.85;;
76761;SDS011;65705;51.032;13.790;2023-03-13T06:55:12;17.13;;;4.88;;
76761;SDS011;65705;51.032;13.790;2023-03-13T06:57:38;14.60;;;4.18;;
76761;SDS011;65705;51.032;13.790;2023-03-13T07:00:04;11.65;;;4.07;;
76761;SDS011;65705;51.032;13.790;2023-03-13T07:02:35;11.77;;;4.10;;
76761;SDS011;65705;51.032;13.790;2023-03-13T07:05:01;25.40;;;5.18;;
76761;SDS011;65705;51.032;13.790;2023-03-13T07:07:30;13.70;;;4.47;;
76761;SDS011;65705;51.032;13.790;2023-03-13T07:09:57;10.27;;;4.47;;
76761;SDS011;65705;51.032;13.790;2023-03-13T07:12:24;12.93;;;4.18;;
76761;SDS011;65705;51.032;13.790;2023-03-13T07:14:49;21.33;;;4.85;;
76761;SDS011;65705;51.032;13.790;2023-03-13T07:17:15;10.73;;;3.70;;
76761;SDS011;65705;51.032;13.790;2023-03-13T07:19:41;16.33;;;4.28;;
76761;SDS011;65705;51.032;13.790;2023-03-13T07:22:06;14.75;;;4.35;;
76761;SDS011;65705;51.032;13.790;2023-03-13T07:24:32;12.18;;;4.32;;
76761;SDS011;65705;51.032;13.790;2023-03-13T07:26:58;14.10;;;4.35;;
76761;SDS011;65705;51.032;13.790;2023-03-13T07:29:23;10.93;;;3.90;;
76761;SDS011;65705;51.032;13.790;2023-03-13T07:31:49;11.50;;;3.75;;
76761;SDS011;65705;51.032;13.790;2023-03-13T07:34:15;12.48;;;3.88;;
76761;SDS011;65705;51.032;13.790;2023-03-13T07:36:41;7.72;;;3.30;;
76761;SDS011;65705;51.032;13.790;2023-03-13T07:39:06;9.30;;;2.45;;
76761;SDS011;65705;51.032;13.790;2023-03-13T07:41:32;9.15;;;2.47;;
76761;SDS011;65705;51.032;13.790;2023-03-13T07:43:58;9.98;;;1.90;;
76761;SDS011;65705;51.032;13.790;2023-03-13T07:46:24;10.77;;;1.75;;
76761;SDS011;65705;51.032;13.790;2023-03-13T07:48:49;10.68;;;2.83;;
76761;SDS011;65705;51.032;13.790;2023-03-13T07:51:17;9.52;;;2.05;;
76761;SDS011;65705;51.032;13.790;2023-03-13T07:53:45;9.60;;;1.90;;
76761;SDS011;65705;51.032;13.790;2023-03-13T07:56:13;10.27;;;1.98;;
76761;SDS011;65705;51.032;13.790;2023-03-13T07:58:41;7.43;;;2.17;;
76761;SDS011;65705;51.032;13.790;2023-03-13T08:01:10;7.22;;;2.65;;
76761;SDS011;65705;51.032;13.790;2023-03-13T08:03:41;11.77;;;2.70;;
76761;SDS011;65705;51.032;13.790;2023-03-13T08:06:11;15.27;;;3.45;;
76761;SDS011;65705;51.032;13.790;2023-03-13T08:08:39;9.10;;;3.95;;
76761;SDS011;65705;51.032;13.790;2023-03-13T08:11:10;10.80;;;3.65;;
76761;SDS011;65705;51.032;13.790;2023-03-13T08:13:38;9.95;;;3.65;;
76761;SDS011;65705;51.032;13.790;2023-03-13T08:18:33;13.05;;;4.80;;
76761;SDS011;65705;51.032;13.790;2023-03-13T08:21:04;9.60;;;4.07;;
76761;SDS011;65705;51.032;13.790;2023-03-13T08:23:32;9.32;;;3.72;;
76761;SDS011;65705;51.032;13.790;2023-03-13T08:26:08;14.85;;;4.22;;
76761;SDS011;65705;51.032;13.790;2023-03-13T08:28:36;9.25;;;4.10;;
76761;SDS011;65705;51.032;13.790;2023-03-13T08:31:22;7.13;;;3.70;;
76761;SDS011;65705;51.032;13.790;2023-03-13T08:33:49;14.30;;;5.15;;
76761;SDS011;65705;51.032;13.790;2023-03-13T08:36:17;14.07;;;4.80;;
76761;SDS011;65705;51.032;13.790;2023-03-13T08:38:43;21.02;;;9.45;;
76761;SDS011;65705;51.032;13.790;2023-03-13T08:41:11;13.88;;;5.25;;
76761;SDS011;65705;51.032;13.790;2023-03-13T08:43:38;12.02;;;4.07;;
76761;SDS011;65705;51.032;13.790;2023-03-13T08:46:05;17.08;;;4.88;;
76761;SDS011;65705;51.032;13.790;2023-03-13T08:48:31;15.65;;;4.55;;
76761;SDS011;65705;51.032;13.790;2023-03-13T08:51:07;9.10;;;3.55;;
76761;SDS011;65705;51.032;13.790;2023-03-13T08:53:33;12.57;;;4.40;;
76761;SDS011;65705;51.032;13.790;2023-03-13T08:56:00;14.70;;;4.50;;
76761;SDS011;65705;51.032;13.790;2023-03-13T08:58:26;12.65;;;3.42;;
76761;SDS011;65705;51.032;13.790;2023-03-13T09:00:53;10.90;;;3.50;;
76761;SDS011;65705;51.032;13.790;2023-03-13T09:03:19;10.68;;;3.92;;
76761;SDS011;65705;51.032;13.790;2023-03-13T09:05:45;12.63;;;3.60;;
76761;SDS011;65705;51.032;13.790;2023-03-13T09:08:12;10.15;;;3.10;;
76761;SDS011;65705;51.032;13.790;2023-03-13T09:10:39;8.05;;;2.45;;
76761;SDS011;65705;51.032;13.790;2023-03-13T09:13:05;5.90;;;1.70;;
76761;SDS011;65705;51.032;13.790;2023-03-13T09:15:31;5.55;;;1.50;;
76761;SDS011;65705;51.032;13.790;2023-03-13T09:17:57;11.05;;;4.32;;
76761;SDS011;65705;51.032;13.790;2023-03-13T09:20:22;4.95;;;1.58;;
76761;SDS011;65705;51.032;13.790;2023-03-13T09:22:48;3.17;;;1.20;;
76761;SDS011;65705;51.032;13.790;2023-03-13T09:25:14;3.13;;;1.35;;
76761;SDS011;65705;51.032;13.790;2023-03-13T09:27:39;4.25;;;1.58;;
76761;SDS011;65705;51.032;13.790;2023-03-13T09:30:05;4.05;;;1.05;;
76761;SDS011;65705;51.032;13.790;2023-03-13T09:32:32;4.97;;;1.48;;
76761;SDS011;65705;51.032;13.790;2023-03-13T09:34:58;6.03;;;2.00;;
76761;SDS011;65705;51.032;13.790;2023-03-13T09:37:24;5.72;;;1.60;;
76761;SDS011;65705;51.032;13.790;2023-03-13T09:39:50;4.20;;;1.20;;
76761;SDS011;65705;51.032;13.790;2023-03-13T09:42:19;5.43;;;2.05;;
76761;SDS011;65705;51.032;13.790;2023-03-13T09:44:57;6.18;;;2.38;;
76761;SDS011;65705;51.032;13.790;2023-03-13T09:47:29;7.47;;;2.65;;
76761;SDS011;65705;51.032;13.790;2023-03-13T09:50:10;5.93;;;1.67;;
76761;SDS011;65705;51.032;13.790;2023-03-13T09:52:39;2.60;;;1.02;;
76761;SDS011;65705;51.032;13.790;2023-03-13T09:58:09;3.15;;;1.05;;
76761;SDS011;65705;51.032;13.790;2023-03-13T10:00:42;3.42;;;0.88;;
76761;SDS011;65705;51.032;13.790;2023-03-13T10:05:38;6.13;;;1.33;;
76761;SDS011;65705;51.032;13.790;2023-03-13T10:08:19;10.00;;;1.20;;
76761;SDS011;65705;51.032;13.790;2023-03-13T10:10:56;6.43;;;1.60;;
76761;SDS011;65705;51.032;13.790;2023-03-13T10:18:51;4.90;;;1.92;;
76761;SDS011;65705;51.032;13.790;2023-03-13T10:21:21;3.70;;;1.30;;
76761;SDS011;65705;51.032;13.790;2023-03-13T10:26:33;3.65;;;1.00;;
76761;SDS011;65705;51.032;13.790;2023-03-13T10:31:42;2.13;;;0.70;;
76761;SDS011;65705;51.032;13.790;2023-03-13T10:34:17;2.65;;;0.98;;
76761;SDS011;65705;51.032;13.790;2023-03-13T10:36:46;3.30;;;0.98;;
76761;SDS011;65705;51.032;13.790;2023-03-13T10:39:18;3.22;;;0.70;;
76761;SDS011;65705;51.032;13.790;2023-03-13T10:41:49;3.08;;;1.05;;
76761;SDS011;65705;51.032;13.790;2023-03-13T10:44:22;3.63;;;0.90;;
76761;SDS011;65705;51.032;13.790;2023-03-13T10:46:57;5.28;;;1.83;;
76761;SDS011;65705;51.032;13.790;2023-03-13T10:49:25;6.57;;;2.17;;
76761;SDS011;65705;51.032;13.790;2023-03-13T10:51:55;5.80;;;2.47;;
76761;SDS011;65705;51.032;13.790;2023-03-13T10:54:33;4.55;;;2.05;;
76761;SDS011;65705;51.032;13.790;2023-03-13T10:59:43;8.52;;;3.35;;
76761;SDS011;65705;51.032;13.790;2023-03-13T11:05:28;4.82;;;2.10;;
76761;SDS011;65705;51.032;13.790;2023-03-13T11:07:55;3.60;;;1.77;;
76761;SDS011;65705;51.032;13.790;2023-03-13T11:10:28;5.28;;;1.50;;
76761;SDS011;65705;51.032;13.790;2023-03-13T11:12:55;2.38;;;1.10;;
76761;SDS011;65705;51.032;13.790;2023-03-13T11:18:05;6.05;;;0.90;;
76761;SDS011;65705;51.032;13.790;2023-03-13T11:20:40;2.47;;;0.80;;
76761;SDS011;65705;51.032;13.790;2023-03-13T11:31:39;2.17;;;0.90;;
76761;SDS011;65705;51.032;13.790;2023-03-13T11:34:13;4.43;;;0.98;;
76761;SDS011;65705;51.032;13.790;2023-03-13T11:39:31;2.13;;;0.80;;
76761;SDS011;65705;51.032;13.790;2023-03-13T11:53:25;2.70;;;1.05;;
76761;SDS011;65705;51.032;13.790;2023-03-13T11:59:12;3.75;;;1.10;;
76761;SDS011;65705;51.032;13.790;2023-03-13T12:01:27;4.20;;;0.90;;
76761;SDS011;65705;51.032;13.790;2023-03-13T12:04:01;5.60;;;1.50;;
76761;SDS011;65705;51.032;13.790;2023-03-13T12:06:34;4.85;;;1.05;;
76761;SDS011;65705;51.032;13.790;2023-03-13T12:09:08;8.57;;;1.85;;
76761;SDS011;65705;51.032;13.790;2023-03-13T12:11:39;4.70;;;0.70;;
76761;SDS011;65705;51.032;13.790;2023-03-13T12:14:16;5.28;;;0.90;;
76761;SDS011;65705;51.032;13.790;2023-03-13T12:16:52;3.22;;;0.95;;
76761;SDS011;65705;51.032;13.790;2023-03-13T12:19:34;3.92;;;0.70;;
76761;SDS011;65705;51.032;13.790;2023-03-13T12:22:13;2.05;;;0.70;;
76761;SDS011;65705;51.032;13.790;2023-03-13T12:25:01;5.95;;;0.90;;
76761;SDS011;65705;51.032;13.790;2023-03-13T12:27:35;6.80;;;0.90;;
76761;SDS011;65705;51.032;13.790;2023-03-13T12:35:52;9.07;;;3.05;;
76761;SDS011;65705;51.032;13.790;2023-03-13T12:41:19;3.65;;;0.88;;
76761;SDS011;65705;51.032;13.790;2023-03-13T12:43:51;2.08;;;0.80;;
76761;SDS011;65705;51.032;13.790;2023-03-13T12:49:12;2.20;;;0.80;;
76761;SDS011;65705;51.032;13.790;2023-03-13T12:52:26;3.00;;;0.60;;
76761;SDS011;65705;51.032;13.790;2023-03-13T13:00:49;4.60;;;1.20;;
76761;SDS011;65705;51.032;13.790;2023-03-13T13:03:24;4.90;;;1.10;;
76761;SDS011;65705;51.032;13.790;2023-03-13T13:06:01;0.65;;;0.50;;
76761;SDS011;65705;51.032;13.790;2023-03-13T13:08:34;1.35;;;0.60;;
76761;SDS011;65705;51.032;13.790;2023-03-13T13:14:35;3.60;;;1.17;;
76761;SDS011;65705;51.032;13.790;2023-03-13T13:17:11;1.92;;;0.95;;
76761;SDS011;65705;51.032;13.790;2023-03-13T13:19:44;1.52;;;0.63;;
76761;SDS011;65705;51.032;13.790;2023-03-13T13:30:27;6.70;;;1.42;;
76761;SDS011;65705;51.032;13.790;2023-03-13T13:32:56;4.03;;;1.20;;
76761;SDS011;65705;51.032;13.790;2023-03-13T13:35:44;2.63;;;0.68;;
76761;SDS011;65705;51.032;13.790;2023-03-13T13:38:31;3.17;;;0.73;;
76761;SDS011;65705;51.032;13.790;2023-03-13T13:43:33;5.15;;;1.40;;
76761;SDS011;65705;51.032;13.790;2023-03-13T13:46:14;3.47;;;1.13;;
76761;SDS011;65705;51.032;13.790;2023-03-13T13:48:43;3.67;;;0.73;;
76761;SDS011;65705;51.032;13.790;2023-03-13T13:53:45;2.00;;;0.80;;
76761;SDS011;65705;51.032;13.790;2023-03-13T13:58:56;2.17;;;0.70;;
76761;SDS011;65705;51.032;13.790;2023-03-13T14:01:24;4.00;;;0.63;;
76761;SDS011;65705;51.032;13.790;2023-03-13T14:03:50;3.88;;;0.70;;
76761;SDS011;65705;51.032;13.790;2023-03-13T14:06:28;2.53;;;0.60;;
76761;SDS011;65705;51.032;13.790;2023-03-13T14:11:54;3.97;;;1.05;;
76761;SDS011;65705;51.032;13.790;2023-03-13T14:14:21;3.05;;;1.10;;
76761;SDS011;65705;51.032;13.790;2023-03-13T14:19:21;3.28;;;0.73;;
76761;SDS011;65705;51.032;13.790;2023-03-13T14:21:47;1.15;;;0.55;;
76761;SDS011;65705;51.032;13.790;2023-03-13T14:24:14;2.97;;;0.50;;
76761;SDS011;65705;51.032;13.790;2023-03-13T14:26:42;3.78;;;0.63;;
76761;SDS011;65705;51.032;13.790;2023-03-13T14:29:14;1.70;;;0.75;;
76761;SDS011;65705;51.032;13.790;2023-03-13T14:31:49;1.17;;;0.70;;
76761;SDS011;65705;51.032;13.790;2023-03-13T14:34:16;2.92;;;0.70;;
76761;SDS011;65705;51.032;13.790;2023-03-13T14:36:49;2.72;;;0.70;;
76761;SDS011;65705;51.032;13.790;2023-03-13T14:39:35;2.60;;;0.77;;
76761;SDS011;65705;51.032;13.790;2023-03-13T14:44:30;2.45;;;0.70;;
76761;SDS011;65705;51.032;13.790;2023-03-13T14:47:07;1.83;;;0.70;;
76761;SDS011;65705;51.032;13.790;2023-03-13T14:49:44;2.30;;;0.75;;
76761;SDS011;65705;51.032;13.790;2023-03-13T14:57:39;2.53;;;0.80;;
76761;SDS011;65705;51.032;13.790;2023-03-13T15:00:30;4.97;;;1.00;;
76761;SDS011;65705;51.032;13.790;2023-03-13T15:05:42;5.00;;;1.50;;
76761;SDS011;65705;51.032;13.790;2023-03-13T15:08:22;7.85;;;2.17;;
76761;SDS011;65705;51.032;13.790;2023-03-13T15:10:49;4.18;;;1.35;;
76761;SDS011;65705;51.032;13.790;2023-03-13T15:15:45;2.42;;;0.98;;
76761;SDS011;65705;51.032;13.790;2023-03-13T15:18:21;4.45;;;1.48;;
76761;SDS011;65705;51.032;13.790;2023-03-13T15:20:49;1.90;;;0.80;;
76761;SDS011;65705;51.032;13.790;2023-03-13T15:23:16;3.17;;;1.13;;
76761;SDS011;65705;51.032;13.790;2023-03-13T15:25:42;1.77;;;0.90;;
76761;SDS011;65705;51.032;13.790;2023-03-13T15:28:12;3.72;;;0.95;;
76761;SDS011;65705;51.032;13.790;2023-03-13T15:30:40;5.43;;;1.33;;
76761;SDS011;65705;51.032;13.790;2023-03-13T15:33:13;5.22;;;1.30;;
76761;SDS011;65705;51.032;13.790;2023-03-13T15:35:41;2.15;;;0.80;;
76761;SDS011;65705;51.032;13.790;2023-03-13T15:38:10;3.08;;;0.90;;
76761;SDS011;65705;51.032;13.790;2023-03-13T15:40:38;4.10;;;0.88;;
76761;SDS011;65705;51.032;13.790;2023-03-13T15:43:04;2.53;;;1.17;;
76761;SDS011;65705;51.032;13.790;2023-03-13T15:45:30;1.92;;;0.70;;
76761;SDS011;65705;51.032;13.790;2023-03-13T15:47:57;3.10;;;0.93;;
76761;SDS011;65705;51.032;13.790;2023-03-13T15:50:24;3.45;;;1.08;;
76761;SDS011;65705;51.032;13.790;2023-03-13T15:52:58;2.35;;;1.02;;
76761;SDS011;65705;51.032;13.790;2023-03-13T15:55:25;1.67;;;0.80;;
76761;SDS011;65705;51.032;13.790;2023-03-13T15:57:53;1.85;;;0.70;;
76761;SDS011;65705;51.032;13.790;2023-03-13T16:00:20;4.63;;;0.80;;
76761;SDS011;65705;51.032;13.790;2023-03-13T16:02:48;2.15;;;0.60;;
76761;SDS011;65705;51.032;13.790;2023-03-13T16:05:13;1.42;;;0.82;;
76761;SDS011;65705;51.032;13.790;2023-03-13T16:07:39;2.65;;;1.25;;
76761;SDS011;65705;51.032;13.790;2023-03-13T16:10:11;3.55;;;1.42;;
76761;SDS011;65705;51.032;13.790;2023-03-13T16:12:43;5.00;;;2.60;;
76761;SDS011;65705;51.032;13.790;2023-03-13T16:15:09;3.83;;;1.45;;
76761;SDS011;65705;51.032;13.790;2023-03-13T16:17:35;2.70;;;1.33;;
76761;SDS011;65705;51.032;13.790;2023-03-13T16:20:01;1.70;;;0.70;;
76761;SDS011;65705;51.032;13.790;2023-03-13T16:22:29;2.97;;;0.90;;
76761;SDS011;65705;51.032;13.790;2023-03-13T16:24:55;1.33;;;0.80;;
76761;SDS011;65705;51.032;13.790;2023-03-13T16:27:20;2.65;;;0.73;;
76761;SDS011;65705;51.032;13.790;2023-03-13T16:29:47;1.98;;;0.63;;
76761;SDS011;65705;51.032;13.790;2023-03-13T16:32:14;2.28;;;0.90;;
76761;SDS011;65705;51.032;13.790;2023-03-13T16:34:41;5.78;;;0.90;;
76761;SDS011;65705;51.032;13.790;2023-03-13T16:37:14;4.50;;;0.85;;
76761;SDS011;65705;51.032;13.790;2023-03-13T16:39:42;6.03;;;0.90;;
76761;SDS011;65705;51.032;13.790;2023-03-13T16:42:09;2.22;;;0.82;;
76761;SDS011;65705;51.032;13.790;2023-03-13T16:44:35;4.20;;;0.80;;
76761;SDS011;65705;51.032;13.790;2023-03-13T16:47:00;4.20;;;1.20;;